Time;durP1;ratioP1;P1;durP2;ratioP2;P2;SDS_P1;SDS_P2;PMS_P1;PMS_P2;Temp;Humidity;BMP_temperature;BMP_pressure;BME280_temperature;BME280_humidity;BME280_pressure;Samples;Min_cycle;Max_cycle;Signal;HPM_P1;HPM_P2
2021/05/08 00:01:21;;;;;;;10.50;8.52;;;6.60;99.90;;;;;;5013005;28;20471;-83
2021/05/08 00:03:47;;;;;;;11.60;9.45;;;6.60;99.90;;;;;;5014990;28;20042;-83
2021/05/08 00:06:14;;;;;;;11.00;8.65;;;6.70;99.90;;;;;;5015535;28;20034;-83
2021/05/08 00:08:40;;;;;;;11.20;8.30;;;6.70;99.90;;;;;;5001118;28;20046;-82
2021/05/08 00:11:07;;;;;;;13.20;9.60;;;6.60;99.90;;;;;;5009890;28;20073;-83
2021/05/08 00:13:33;;;;;;;16.27;9.70;;;6.60;99.90;;;;;;5010804;28;20091;-83
2021/05/08 00:16:00;;;;;;;11.32;9.10;;;6.50;99.90;;;;;;5018575;28;20135;-83
2021/05/08 00:18:28;;;;;;;12.45;9.93;;;6.50;99.90;;;;;;5021954;28;20089;-83
2021/05/08 00:20:54;;;;;;;11.73;9.30;;;6.40;99.90;;;;;;5022114;28;20507;-82
2021/05/08 00:23:20;;;;;;;11.48;9.05;;;6.20;99.90;;;;;;5003064;28;20057;-81
2021/05/08 00:25:47;;;;;;;13.35;8.73;;;6.10;99.90;;;;;;5003201;28;20085;-79
2021/05/08 00:28:13;;;;;;;12.73;9.00;;;5.90;99.90;;;;;;5013681;28;20073;-81
2021/05/08 00:30:40;;;;;;;13.80;9.82;;;5.80;99.90;;;;;;5014688;28;20046;-82
2021/05/08 00:33:06;;;;;;;13.15;9.93;;;5.80;99.90;;;;;;5016371;28;20499;-80
2021/05/08 00:35:33;;;;;;;16.23;9.75;;;5.80;99.90;;;;;;5007773;28;20495;-81
2021/05/08 00:38:00;;;;;;;11.93;9.38;;;5.70;99.90;;;;;;5003789;28;20486;-81
2021/05/08 00:40:26;;;;;;;12.63;9.63;;;5.70;99.90;;;;;;5002669;28;20534;-81
2021/05/08 00:42:52;;;;;;;12.75;9.85;;;5.60;99.90;;;;;;5002171;28;20113;-81
2021/05/08 00:45:19;;;;;;;12.98;9.45;;;5.50;99.90;;;;;;5002146;28;20110;-80
2021/05/08 00:47:48;;;;;;;14.40;8.95;;;5.30;99.90;;;;;;5001985;28;20050;-80
2021/05/08 00:50:16;;;;;;;14.13;10.32;;;5.20;99.90;;;;;;5000581;28;20049;-81
2021/05/08 00:52:44;;;;;;;17.40;10.60;;;5.20;99.90;;;;;;5002371;28;20097;-80
2021/05/08 00:55:11;;;;;;;14.50;10.90;;;5.20;99.90;;;;;;5001799;28;20404;-80
2021/05/08 00:57:38;;;;;;;19.17;11.10;;;5.20;99.90;;;;;;5001049;28;20137;-82
2021/05/08 01:00:07;;;;;;;14.85;11.43;;;5.30;99.90;;;;;;5002872;28;20129;-82
2021/05/08 01:02:33;;;;;;;14.98;11.55;;;5.30;99.90;;;;;;5003206;28;20046;-82
2021/05/08 01:05:00;;;;;;;20.08;11.18;;;5.40;99.90;;;;;;5002925;28;20169;-82
2021/05/08 01:07:26;;;;;;;15.25;11.10;;;5.40;99.90;;;;;;5004608;28;20105;-82
2021/05/08 01:09:54;;;;;;;17.25;11.73;;;5.30;99.90;;;;;;5001922;28;20104;-82
2021/05/08 01:12:21;;;;;;;17.70;11.70;;;5.50;99.90;;;;;;5000712;28;20182;-82
2021/05/08 01:14:48;;;;;;;19.80;11.10;;;5.50;99.90;;;;;;5001025;28;20131;-82
2021/05/08 01:17:14;;;;;;;16.58;11.60;;;5.50;99.90;;;;;;5000630;28;20113;-82
2021/05/08 01:19:41;;;;;;;17.13;11.32;;;5.50;99.90;;;;;;5001288;28;20125;-82
2021/05/08 01:22:08;;;;;;;14.73;10.98;;;5.50;99.90;;;;;;5000201;28;20054;-82
2021/05/08 01:24:35;;;;;;;16.88;11.90;;;5.40;99.90;;;;;;5001346;28;20070;-81
2021/05/08 01:27:01;;;;;;;20.50;11.88;;;5.50;99.90;;;;;;5001688;28;20060;-82
2021/05/08 01:29:27;;;;;;;18.25;12.65;;;5.50;99.90;;;;;;5002207;28;20135;-82
2021/05/08 01:31:54;;;;;;;16.75;12.40;;;5.50;99.90;;;;;;5002749;28;20081;-82
2021/05/08 01:34:20;;;;;;;17.35;12.93;;;5.50;99.90;;;;;;5002499;28;20082;-82
2021/05/08 01:36:47;;;;;;;16.45;12.32;;;5.40;99.90;;;;;;5000815;28;20431;-81
2021/05/08 01:39:14;;;;;;;18.60;11.85;;;5.40;99.90;;;;;;5000968;28;20078;-82
2021/05/08 01:41:40;;;;;;;20.10;13.43;;;5.30;99.90;;;;;;5002021;28;20051;-82
2021/05/08 01:44:09;;;;;;;19.10;12.90;;;5.20;99.90;;;;;;5005941;28;20054;-82
2021/05/08 01:46:35;;;;;;;19.55;12.85;;;5.10;99.90;;;;;;5008160;28;20061;-82
2021/05/08 01:49:02;;;;;;;18.88;13.75;;;5.00;99.90;;;;;;5009789;28;20050;-81
2021/05/08 01:51:28;;;;;;;18.67;14.07;;;5.00;99.90;;;;;;5009719;28;20108;-82
2021/05/08 01:53:55;;;;;;;21.85;13.82;;;5.00;99.90;;;;;;5010039;28;20054;-81
2021/05/08 01:56:22;;;;;;;23.42;14.93;;;5.00;99.90;;;;;;5005496;28;20142;-82
2021/05/08 01:58:49;;;;;;;25.23;14.65;;;5.00;99.90;;;;;;5002815;28;20058;-82
2021/05/08 02:01:15;;;;;;;28.27;15.80;;;4.90;99.90;;;;;;5001025;28;20053;-82
2021/05/08 02:03:42;;;;;;;30.00;15.70;;;4.80;99.90;;;;;;5001351;28;20101;-82
2021/05/08 02:06:08;;;;;;;27.13;15.90;;;4.80;99.90;;;;;;5002420;28;20081;-80
2021/05/08 02:08:35;;;;;;;23.00;15.27;;;4.70;99.90;;;;;;5000806;28;20105;-80
2021/05/08 02:11:01;;;;;;;21.08;15.05;;;4.60;99.90;;;;;;5001944;28;20168;-82
2021/05/08 02:13:28;;;;;;;23.02;14.73;;;4.50;99.90;;;;;;5001058;28;20133;-82
2021/05/08 02:15:55;;;;;;;22.92;15.52;;;4.50;99.90;;;;;;4999489;28;20092;-83
2021/05/08 02:18:21;;;;;;;23.85;14.60;;;4.40;99.90;;;;;;4999733;28;20134;-82
2021/05/08 02:20:48;;;;;;;26.02;14.20;;;4.40;99.90;;;;;;5000054;28;20042;-83
2021/05/08 02:23:16;;;;;;;18.35;13.43;;;4.40;99.90;;;;;;4999865;28;20054;-81
2021/05/08 02:25:42;;;;;;;20.98;14.27;;;4.40;99.90;;;;;;4999644;28;20117;-80
2021/05/08 02:28:09;;;;;;;18.92;13.60;;;4.40;99.90;;;;;;5000981;28;20137;-82
2021/05/08 02:30:38;;;;;;;25.63;15.20;;;4.40;99.90;;;;;;5000627;28;20109;-82
2021/05/08 02:33:05;;;;;;;20.70;14.68;;;4.40;99.90;;;;;;5000596;28;20057;-82
2021/05/08 02:35:32;;;;;;;22.92;15.07;;;4.50;99.90;;;;;;4999351;28;20058;-80
2021/05/08 02:37:59;;;;;;;23.10;14.65;;;4.50;99.90;;;;;;4998974;28;20109;-82
2021/05/08 02:40:27;;;;;;;24.02;14.48;;;4.50;99.90;;;;;;4998616;28;20106;-82
2021/05/08 02:42:54;;;;;;;22.95;15.35;;;4.50;99.90;;;;;;4999398;28;20515;-81
2021/05/08 02:45:20;;;;;;;23.90;14.68;;;4.50;99.90;;;;;;4999314;28;20140;-82
2021/05/08 02:47:49;;;;;;;21.88;15.05;;;4.40;99.90;;;;;;4998872;28;20133;-81
2021/05/08 02:50:17;;;;;;;23.42;14.98;;;4.40;99.90;;;;;;5001246;28;20077;-80
2021/05/08 02:52:44;;;;;;;21.00;15.30;;;4.30;99.90;;;;;;5007030;28;20066;-81
2021/05/08 02:55:12;;;;;;;22.73;14.98;;;4.30;99.90;;;;;;5006104;28;20310;-81
2021/05/08 02:57:38;;;;;;;22.60;15.32;;;4.30;99.90;;;;;;5002306;28;20050;-81
2021/05/08 03:00:07;;;;;;;25.35;15.85;;;4.30;99.90;;;;;;5000358;28;20106;-80
2021/05/08 03:02:33;;;;;;;24.13;16.23;;;4.20;99.90;;;;;;5004828;28;20046;-82
2021/05/08 03:05:01;;;;;;;20.67;15.60;;;4.30;99.90;;;;;;5005622;28;20054;-82
2021/05/08 03:07:27;;;;;;;23.10;15.73;;;4.30;99.90;;;;;;5002677;28;20110;-82
2021/05/08 03:09:53;;;;;;;31.98;18.02;;;4.20;99.90;;;;;;5000324;28;20137;-82
2021/05/08 03:12:20;;;;;;;22.80;17.15;;;4.20;99.90;;;;;;5000609;28;20100;-82
2021/05/08 03:14:46;;;;;;;26.85;16.92;;;4.20;99.90;;;;;;5000085;28;20057;-81
2021/05/08 03:17:13;;;;;;;22.67;16.33;;;4.10;99.90;;;;;;5001294;28;20129;-81
2021/05/08 03:19:39;;;;;;;21.55;15.93;;;4.10;99.90;;;;;;4999891;28;20050;-82
2021/05/08 03:22:07;;;;;;;27.10;16.73;;;4.00;99.90;;;;;;5000810;28;20089;-82
2021/05/08 03:24:33;;;;;;;26.35;16.38;;;4.00;99.90;;;;;;5001355;28;20133;-82
2021/05/08 03:27:00;;;;;;;23.27;15.77;;;4.00;99.90;;;;;;4997893;28;20054;-82
2021/05/08 03:29:27;;;;;;;23.63;16.40;;;4.00;99.90;;;;;;4999179;28;20510;-82
2021/05/08 03:31:53;;;;;;;23.65;16.10;;;3.90;99.90;;;;;;4999606;28;20129;-82
2021/05/08 03:34:20;;;;;;;23.15;15.48;;;3.90;99.90;;;;;;4999006;28;20128;-82
2021/05/08 03:36:46;;;;;;;24.77;14.88;;;3.90;99.90;;;;;;4998391;28;20050;-82
2021/05/08 03:39:13;;;;;;;29.25;16.13;;;3.90;99.90;;;;;;4999459;28;20081;-82
2021/05/08 03:41:40;;;;;;;21.42;15.20;;;3.80;99.90;;;;;;4999975;28;20081;-83
2021/05/08 03:44:07;;;;;;;22.67;15.30;;;3.90;99.90;;;;;;4999460;28;20185;-82
2021/05/08 03:46:33;;;;;;;20.60;14.90;;;3.80;99.90;;;;;;4999310;28;20105;-82
2021/05/08 03:48:59;;;;;;;23.67;16.05;;;3.80;99.90;;;;;;4997898;28;20161;-80
2021/05/08 03:51:26;;;;;;;27.92;16.10;;;3.90;99.90;;;;;;4996410;28;20084;-79
2021/05/08 03:53:54;;;;;;;22.35;15.93;;;3.90;99.90;;;;;;4996999;28;20117;-81
2021/05/08 03:56:21;;;;;;;23.58;16.45;;;3.90;99.90;;;;;;5008280;28;20050;-81
2021/05/08 03:58:48;;;;;;;22.45;15.57;;;3.80;99.90;;;;;;5011823;28;20046;-81
2021/05/08 04:01:14;;;;;;;23.77;17.10;;;3.80;99.90;;;;;;5011235;28;20077;-81
2021/05/08 04:03:41;;;;;;;25.38;16.85;;;3.80;99.90;;;;;;5011045;28;20061;-81
2021/05/08 04:06:07;;;;;;;19.90;16.45;;;3.90;99.90;;;;;;5009980;28;20109;-79
2021/05/08 04:08:33;;;;;;;24.05;16.35;;;3.90;99.90;;;;;;5003059;28;20073;-80
2021/05/08 04:11:00;;;;;;;23.33;16.35;;;3.90;99.90;;;;;;5002288;28;20396;-81
2021/05/08 04:13:27;;;;;;;22.30;16.85;;;3.90;99.90;;;;;;5004868;28;20070;-82
2021/05/08 04:15:53;;;;;;;21.67;16.90;;;3.80;99.90;;;;;;5010346;28;20054;-81
2021/05/08 04:18:20;;;;;;;21.25;16.00;;;4.00;99.90;;;;;;5009582;28;20069;-83
2021/05/08 04:20:46;;;;;;;19.38;15.45;;;4.10;99.90;;;;;;5009200;28;20074;-83
2021/05/08 04:23:13;;;;;;;20.92;15.27;;;4.20;99.90;;;;;;5008562;28;20545;-80
2021/05/08 04:25:40;;;;;;;19.80;14.50;;;4.40;99.90;;;;;;5005579;28;20078;-81
2021/05/08 04:28:09;;;;;;;19.95;14.73;;;4.60;99.90;;;;;;5004118;28;20058;-82
2021/05/08 04:30:37;;;;;;;19.25;14.18;;;4.80;99.90;;;;;;5047228;23;20045;-80
2021/05/08 04:33:03;;;;;;;15.65;13.25;;;5.10;99.90;;;;;;5066972;28;20047;-80
2021/05/08 04:35:30;;;;;;;18.30;13.52;;;5.30;99.90;;;;;;5059488;28;20056;-80
2021/05/08 04:38:01;;;;;;;17.45;13.45;;;5.50;99.90;;;;;;5058174;28;20132;-80
2021/05/08 04:40:28;;;;;;;17.50;12.15;;;5.50;99.90;;;;;;5050340;28;20041;-79
2021/05/08 04:42:54;;;;;;;15.95;12.80;;;5.70;99.90;;;;;;5038892;28;20057;-79
2021/05/08 04:45:24;;;;;;;18.92;12.63;;;5.80;99.90;;;;;;5039127;28;20571;-80
2021/05/08 04:47:55;;;;;;;16.20;12.55;;;5.80;99.90;;;;;;5038385;28;20053;-80
2021/05/08 04:50:22;;;;;;;15.98;11.95;;;5.90;99.90;;;;;;5037360;28;20191;-80
2021/05/08 04:52:49;;;;;;;14.45;12.32;;;6.20;99.90;;;;;;5036750;28;20053;-79
2021/05/08 04:55:16;;;;;;;17.65;12.93;;;6.20;99.90;;;;;;5041540;28;20077;-81
2021/05/08 04:57:42;;;;;;;16.05;12.77;;;6.30;99.90;;;;;;5038641;28;20133;-80
2021/05/08 05:00:12;;;;;;;16.25;12.82;;;6.40;99.90;;;;;;5038100;28;20041;-80
2021/05/08 05:02:40;;;;;;;14.07;12.48;;;6.30;99.90;;;;;;5037900;28;20085;-79
2021/05/08 05:05:09;;;;;;;17.30;13.18;;;6.30;99.90;;;;;;5037863;28;20129;-80
2021/05/08 05:07:36;;;;;;;16.45;11.95;;;6.50;99.90;;;;;;5038408;28;20091;-79
2021/05/08 05:10:03;;;;;;;18.58;12.43;;;6.80;99.90;;;;;;5038422;28;20474;-81
2021/05/08 05:12:29;;;;;;;13.63;11.90;;;7.00;99.90;;;;;;5036669;28;20057;-78
2021/05/08 05:14:56;;;;;;;13.63;11.68;;;7.10;99.90;;;;;;5034443;28;20053;-78
2021/05/08 05:17:22;;;;;;;14.60;11.88;;;7.30;99.90;;;;;;5034380;28;20147;-79
2021/05/08 05:19:48;;;;;;;16.27;11.68;;;7.50;99.90;;;;;;5035017;28;20053;-79
2021/05/08 05:22:16;;;;;;;13.07;10.90;;;7.70;99.90;;;;;;5035002;28;20132;-79
2021/05/08 05:24:42;;;;;;;15.57;11.25;;;7.70;99.90;;;;;;5034723;28;20141;-79
2021/05/08 05:27:08;;;;;;;12.25;10.65;;;7.60;99.90;;;;;;5034195;28;20136;-78
2021/05/08 05:29:35;;;;;;;14.25;10.32;;;7.80;99.90;;;;;;5034480;28;20075;-79
2021/05/08 05:32:01;;;;;;;12.75;10.38;;;8.10;99.90;;;;;;5034747;28;20132;-79
2021/05/08 05:34:27;;;;;;;11.40;9.88;;;8.50;99.90;;;;;;5035462;28;20136;-77
2021/05/08 05:36:54;;;;;;;11.70;10.50;;;8.70;99.90;;;;;;5034950;28;20532;-78
2021/05/08 05:39:21;;;;;;;12.10;9.95;;;9.20;99.90;;;;;;5035074;28;20084;-78
2021/05/08 05:41:47;;;;;;;14.73;9.88;;;9.60;99.90;;;;;;5034019;28;20175;-79
2021/05/08 05:44:14;;;;;;;12.55;10.02;;;9.70;99.90;;;;;;5035204;28;20081;-79
2021/05/08 05:46:40;;;;;;;12.13;9.95;;;9.70;99.90;;;;;;5034369;28;20093;-78
2021/05/08 05:49:06;;;;;;;13.95;9.68;;;9.50;99.90;;;;;;5034920;28;20133;-79
2021/05/08 05:51:33;;;;;;;13.30;9.60;;;9.40;99.90;;;;;;5035897;28;20513;-77
2021/05/08 05:53:59;;;;;;;11.55;9.73;;;9.50;99.90;;;;;;5040937;28;20079;-79
2021/05/08 05:56:28;;;;;;;12.38;9.50;;;9.60;99.90;;;;;;5051963;28;20073;-79
2021/05/08 05:58:54;;;;;;;13.70;9.52;;;9.70;99.90;;;;;;5051429;28;20136;-79
2021/05/08 06:01:21;;;;;;;12.25;9.13;;;9.70;99.90;;;;;;5037890;28;20045;-79
2021/05/08 06:03:48;;;;;;;12.50;9.48;;;10.00;99.90;;;;;;5036093;28;20085;-78
2021/05/08 06:06:14;;;;;;;10.95;9.63;;;10.40;99.90;;;;;;5034631;28;20103;-79
2021/05/08 06:08:41;;;;;;;11.32;9.57;;;10.40;99.90;;;;;;5037716;28;20108;-80
2021/05/08 06:11:07;;;;;;;11.10;9.40;;;10.30;99.90;;;;;;5040230;28;20513;-80
2021/05/08 06:13:35;;;;;;;15.85;9.75;;;10.00;99.90;;;;;;5038600;28;20109;-80
2021/05/08 06:16:02;;;;;;;13.00;10.02;;;9.90;99.90;;;;;;5038912;28;20057;-80
2021/05/08 06:18:29;;;;;;;12.48;10.20;;;9.80;99.90;;;;;;5039200;28;20139;-80
2021/05/08 06:20:55;;;;;;;11.55;9.73;;;9.80;99.90;;;;;;5039245;28;20128;-80
2021/05/08 06:23:22;;;;;;;11.00;9.27;;;9.70;99.90;;;;;;5038089;28;20137;-81
2021/05/08 06:25:48;;;;;;;9.93;8.30;;;9.90;99.90;;;;;;5040568;28;20045;-80
2021/05/08 06:28:17;;;;;;;13.73;8.90;;;10.30;99.90;;;;;;5041191;28;20514;-81
2021/05/08 06:30:44;;;;;;;13.32;8.55;;;10.90;99.90;;;;;;5040820;28;20480;-80
2021/05/08 06:33:11;;;;;;;9.98;8.23;;;11.30;99.90;;;;;;5040805;28;20535;-79
2021/05/08 06:35:38;;;;;;;11.65;9.00;;;11.80;99.90;;;;;;5048652;28;20088;-81
2021/05/08 06:38:05;;;;;;;10.30;8.27;;;12.10;99.90;;;;;;5045268;28;20041;-80
2021/05/08 06:40:32;;;;;;;11.48;8.82;;;12.50;99.90;;;;;;5046362;28;20060;-79
2021/05/08 06:42:58;;;;;;;9.90;8.80;;;12.80;99.90;;;;;;5044854;28;20060;-82
2021/05/08 06:45:25;;;;;;;10.48;8.30;;;12.90;99.90;;;;;;5041106;28;20166;-80
2021/05/08 06:47:58;;;;;;;10.45;8.77;;;13.00;99.90;;;;;;5039365;28;20053;-81
2021/05/08 06:50:24;;;;;;;10.15;8.60;;;12.80;99.90;;;;;;5040051;28;20073;-80
2021/05/08 06:52:51;;;;;;;12.05;8.55;;;12.80;99.90;;;;;;5038265;28;20127;-81
2021/05/08 06:55:17;;;;;;;9.63;8.50;;;12.60;99.90;;;;;;5038191;28;20417;-80
2021/05/08 06:57:44;;;;;;;9.65;8.45;;;12.50;99.90;;;;;;5039143;28;20060;-80
2021/05/08 07:00:11;;;;;;;10.10;8.65;;;12.50;99.90;;;;;;5039468;28;20109;-80
2021/05/08 07:02:37;;;;;;;11.70;8.80;;;12.40;99.90;;;;;;5039962;28;20450;-82
2021/05/08 07:05:05;;;;;;;10.07;8.93;;;12.40;99.90;;;;;;5040295;28;20068;-81
2021/05/08 07:07:32;;;;;;;13.02;9.40;;;12.10;99.90;;;;;;5034560;28;20109;-79
2021/05/08 07:09:58;;;;;;;11.68;9.73;;;12.00;99.90;;;;;;5037284;28;20053;-80
2021/05/08 07:12:25;;;;;;;10.50;9.20;;;11.80;99.90;;;;;;5038593;28;20517;-79
2021/05/08 07:14:51;;;;;;;11.73;9.55;;;11.60;99.90;;;;;;5038730;28;20117;-81
2021/05/08 07:17:17;;;;;;;15.10;8.95;;;11.60;99.90;;;;;;5039415;28;20045;-80
2021/05/08 07:19:44;;;;;;;11.57;8.90;;;11.70;99.90;;;;;;5040983;28;20049;-80
2021/05/08 07:22:11;;;;;;;11.93;8.85;;;11.70;99.90;;;;;;5039859;28;20454;-81
2021/05/08 07:24:37;;;;;;;11.25;9.57;;;11.60;99.90;;;;;;5039842;28;20104;-81
2021/05/08 07:27:04;;;;;;;12.15;9.35;;;11.60;99.90;;;;;;5040005;28;20049;-82
2021/05/08 07:29:31;;;;;;;11.40;8.57;;;11.60;99.90;;;;;;5039111;28;20073;-81
2021/05/08 07:31:59;;;;;;;11.43;9.00;;;11.70;99.90;;;;;;5038730;28;20045;-81
2021/05/08 07:34:25;;;;;;;14.40;8.93;;;11.70;99.90;;;;;;5039250;28;20049;-81
2021/05/08 07:36:52;;;;;;;12.38;8.98;;;11.70;99.90;;;;;;5037809;28;20451;-79
2021/05/08 07:39:22;;;;;;;10.98;9.23;;;11.80;99.90;;;;;;5037583;28;20107;-80
2021/05/08 07:41:48;;;;;;;11.30;8.43;;;11.90;99.90;;;;;;5037887;28;20076;-81
2021/05/08 07:44:15;;;;;;;11.43;9.63;;;12.00;99.90;;;;;;5037840;28;20490;-81
2021/05/08 07:46:41;;;;;;;11.70;9.57;;;12.10;99.90;;;;;;5038630;28;20510;-79
2021/05/08 07:49:08;;;;;;;12.13;8.45;;;12.30;99.90;;;;;;5039125;28;20519;-80
2021/05/08 07:51:34;;;;;;;10.25;8.25;;;12.40;99.90;;;;;;5035925;28;20046;-80
2021/05/08 07:54:01;;;;;;;14.35;8.98;;;12.40;99.90;;;;;;5033685;28;20473;-79
2021/05/08 07:56:28;;;;;;;12.65;9.20;;;12.30;99.90;;;;;;5034473;28;20568;-80
2021/05/08 07:58:54;;;;;;;13.38;9.05;;;12.30;99.90;;;;;;5035430;28;20053;-79
2021/05/08 08:01:21;;;;;;;11.95;9.00;;;12.40;99.90;;;;;;5034958;28;20132;-80
2021/05/08 08:03:48;;;;;;;10.10;8.48;;;12.50;99.90;;;;;;5035635;28;20053;-77
2021/05/08 08:06:14;;;;;;;12.82;8.57;;;12.60;99.90;;;;;;5037047;28;20132;-78
2021/05/08 08:08:40;;;;;;;10.32;8.43;;;12.80;99.90;;;;;;5041013;28;20077;-80
2021/05/08 08:11:07;;;;;;;11.15;8.15;;;13.10;99.90;;;;;;5040314;28;20477;-79
2021/05/08 08:13:34;;;;;;;11.95;8.75;;;13.00;99.90;;;;;;5044089;28;20050;-79
2021/05/08 08:16:03;;;;;;;16.13;8.57;;;13.20;99.90;;;;;;5046042;28;20391;-80
2021/05/08 08:18:29;;;;;;;12.57;8.38;;;13.30;99.90;;;;;;5038540;28;20092;-78
2021/05/08 08:20:55;;;;;;;12.82;8.35;;;13.30;99.90;;;;;;5040927;28;20128;-80
2021/05/08 08:23:22;;;;;;;10.32;8.00;;;13.40;99.90;;;;;;5042111;28;20053;-81
2021/05/08 08:25:49;;;;;;;11.52;7.57;;;13.70;99.90;;;;;;5043236;28;20109;-81
2021/05/08 08:28:16;;;;;;;12.55;8.30;;;13.80;99.90;;;;;;5042128;28;20537;-82
2021/05/08 08:30:43;;;;;;;14.40;8.35;;;13.80;99.90;;;;;;5041664;28;20073;-80
2021/05/08 08:33:09;;;;;;;12.27;8.27;;;14.00;99.90;;;;;;5038767;28;20108;-79
2021/05/08 08:35:36;;;;;;;12.10;7.53;;;14.10;99.90;;;;;;5038338;28;20111;-78
2021/05/08 08:38:02;;;;;;;9.65;7.85;;;14.20;99.90;;;;;;5038930;28;20089;-80
2021/05/08 08:40:29;;;;;;;10.40;7.32;;;14.20;99.90;;;;;;5044256;28;20045;-82
2021/05/08 08:42:55;;;;;;;10.95;7.05;;;14.40;99.90;;;;;;5044099;28;20069;-80
2021/05/08 08:45:21;;;;;;;8.80;6.47;;;14.50;99.90;;;;;;5043516;28;20128;-81
2021/05/08 08:47:49;;;;;;;9.65;6.82;;;14.60;99.90;;;;;;5043301;28;20061;-82
2021/05/08 08:50:15;;;;;;;11.15;7.40;;;14.80;99.90;;;;;;5045117;28;20069;-82
2021/05/08 08:52:42;;;;;;;11.82;7.25;;;14.80;99.90;;;;;;5040976;28;20049;-83
2021/05/08 08:55:10;;;;;;;9.52;6.68;;;14.80;99.90;;;;;;5043913;28;20136;-81
2021/05/08 08:57:39;;;;;;;9.63;6.57;;;14.80;99.90;;;;;;5053527;28;20157;-81
2021/05/08 09:00:07;;;;;;;11.00;6.65;;;14.80;99.90;;;;;;5048497;28;20100;-81
2021/05/08 09:02:34;;;;;;;9.23;6.70;;;14.80;99.90;;;;;;5049565;28;20049;-80
2021/05/08 09:05:01;;;;;;;8.60;5.60;;;14.70;99.90;;;;;;5063551;28;20509;-84
2021/05/08 09:07:30;;;;;;;11.10;6.35;;;14.80;99.90;;;;;;5065039;28;20114;-81
2021/05/08 09:09:57;;;;;;;9.88;6.15;;;14.90;99.90;;;;;;5064382;28;20469;-83
2021/05/08 09:12:27;;;;;;;8.25;5.60;;;15.00;99.90;;;;;;5065437;28;20075;-83
2021/05/08 09:14:54;;;;;;;11.02;5.60;;;15.30;99.90;;;;;;5063486;28;20076;-83
2021/05/08 09:17:24;;;;;;;8.02;5.43;;;15.60;99.90;;;;;;5062478;28;20049;-83
2021/05/08 09:19:57;;;;;;;7.72;4.97;;;16.10;99.90;;;;;;5061815;28;20056;-83
2021/05/08 09:22:32;;;;;;;10.98;5.13;;;16.70;99.90;;;;;;5064400;28;20151;-82
2021/05/08 09:25:04;;;;;;;7.85;4.95;;;17.30;99.90;;;;;;5063715;28;20049;-81
2021/05/08 09:27:45;;;;;;;12.18;5.38;;;17.60;99.90;;;;;;5062257;28;20083;-82
2021/05/08 09:30:18;;;;;;;12.13;6.10;;;18.00;99.90;;;;;;5052141;28;20077;-82
2021/05/08 09:32:46;;;;;;;15.30;5.03;;;18.20;99.90;;;;;;5042465;28;20136;-81
2021/05/08 09:35:17;;;;;;;11.68;5.75;;;18.20;96.50;;;;;;5042463;28;20072;-84
2021/05/08 09:37:44;;;;;;;10.75;5.28;;;18.20;97.20;;;;;;5051085;28;20049;-82
2021/05/08 09:40:19;;;;;;;12.38;4.75;;;18.30;95.00;;;;;;5070850;28;20109;-83
2021/05/08 09:42:48;;;;;;;6.70;4.50;;;18.20;94.80;;;;;;5068248;28;20041;-84
2021/05/08 09:45:16;;;;;;;7.70;5.15;;;18.30;96.90;;;;;;5068343;28;20102;-80
2021/05/08 09:47:43;;;;;;;8.23;5.15;;;18.20;97.20;;;;;;5067033;28;20111;-80
2021/05/08 09:50:25;;;;;;;9.13;5.55;;;18.20;95.70;;;;;;5048479;28;20045;-81
2021/05/08 09:53:37;;;;;;;9.32;4.70;;;18.10;95.00;;;;;;5043961;28;20056;-82
2021/05/08 09:56:04;;;;;;;6.63;4.60;;;17.70;94.90;;;;;;5045985;28;20049;-82
2021/05/08 09:58:31;;;;;;;9.45;4.50;;;17.90;95.90;;;;;;5046180;28;20056;-82
2021/05/08 10:01:03;;;;;;;16.10;11.07;;;17.90;94.30;;;;;;5043004;28;20052;-84
2021/05/08 10:03:36;;;;;;;9.60;4.18;;;17.90;94.40;;;;;;5043069;28;20045;-82
2021/05/08 10:06:09;;;;;;;;;;;17.80;94.80;;;;;;5043584;28;20096;-81
2021/05/08 10:08:36;;;;;;;;;;;17.50;94.10;;;;;;5041459;28;19921;-83
2021/05/08 10:11:09;;;;;;;8.65;5.20;;;17.50;93.80;;;;;;5041885;28;19960;-81
2021/05/08 10:13:35;;;;;;;11.70;5.40;;;17.50;95.00;;;;;;5053375;28;20049;-82
2021/05/08 10:16:03;;;;;;;5.82;4.30;;;17.50;93.70;;;;;;5054195;28;20049;-81
2021/05/08 10:18:34;;;;;;;7.25;4.05;;;17.50;94.40;;;;;;5055328;28;20046;-81
2021/05/08 10:21:01;;;;;;;6.50;4.28;;;17.60;94.10;;;;;;5043532;28;20103;-80
2021/05/08 10:23:30;;;;;;;6.03;4.22;;;17.50;94.20;;;;;;5039977;28;20111;-81
2021/05/08 10:26:02;;;;;;;6.25;4.10;;;17.60;93.70;;;;;;5039420;28;20041;-80
2021/05/08 10:28:29;;;;;;;6.35;4.28;;;17.60;93.20;;;;;;5039937;28;20046;-81
2021/05/08 10:30:56;;;;;;;7.40;4.15;;;17.80;94.10;;;;;;5039085;28;20045;-81
2021/05/08 10:33:24;;;;;;;6.85;3.90;;;18.00;93.60;;;;;;5037728;28;20502;-81
2021/05/08 10:35:52;;;;;;;19.35;4.80;;;18.10;93.70;;;;;;5038535;28;20558;-82
2021/05/08 10:38:21;;;;;;;13.77;4.47;;;18.20;94.20;;;;;;5038114;28;20049;-81
2021/05/08 10:40:52;;;;;;;16.90;4.65;;;18.30;93.80;;;;;;5039333;28;20128;-80
2021/05/08 10:43:48;;;;;;;17.83;5.10;;;18.30;93.10;;;;;;5039842;28;20057;-80
2021/05/08 10:46:16;;;;;;;29.08;6.93;;;18.30;93.10;;;;;;5040481;28;20050;-82
2021/05/08 10:49:18;;;;;;;19.98;5.68;;;18.30;91.80;;;;;;5040929;28;20057;-79
2021/05/08 10:52:27;;;;;;;19.23;7.28;;;18.30;92.90;;;;;;5164250;23;20054;-82
2021/05/08 11:03:11;;;;;;;14.35;10.88;;;18.40;93.50;;;;;;4897716;29;20502;-80
2021/05/08 11:05:51;;;;;;;9.57;3.67;;;18.40;92.80;;;;;;4962003;28;20090;-81
2021/05/08 11:08:49;;;;;;;10.07;4.43;;;18.20;92.90;;;;;;4961342;29;20086;-82
2021/05/08 11:11:19;;;;;;;12.45;3.70;;;18.20;92.50;;;;;;4962344;28;20051;-82
2021/05/08 11:13:59;;;;;;;6.20;3.72;;;18.30;93.30;;;;;;4963382;29;20105;-81
2021/05/08 11:16:59;;;;;;;25.00;5.38;;;18.30;92.60;;;;;;4962348;28;20136;-80
2021/05/08 11:19:44;;;;;;;8.07;3.47;;;18.20;93.10;;;;;;4963547;29;20512;-81
2021/05/08 11:22:32;;;;;;;6.65;3.13;;;17.90;92.20;;;;;;4963258;29;20539;-81
2021/05/08 11:25:43;;;;;;;7.55;3.28;;;17.90;93.80;;;;;;4962356;28;20082;-82
2021/05/08 11:29:00;;;;;;;6.13;3.22;;;17.90;94.00;;;;;;4961333;28;20071;-82
2021/05/08 11:31:39;;;;;;;4.50;3.10;;;17.90;93.80;;;;;;4951784;29;20106;-80
2021/05/08 11:34:52;;;;;;;5.35;3.08;;;17.80;94.60;;;;;;4963688;29;20464;-80
2021/05/08 11:37:38;;;;;;;9.02;3.63;;;17.90;94.20;;;;;;4963569;29;20087;-81
2021/05/08 11:40:11;;;;;;;7.47;3.00;;;17.80;95.30;;;;;;4963924;29;20066;-82
2021/05/08 11:42:58;;;;;;;4.78;2.95;;;17.80;95.70;;;;;;4957931;29;20043;-81
2021/05/08 11:45:39;;;;;;;7.65;3.00;;;17.60;95.80;;;;;;4961493;28;20057;-80
2021/05/08 11:48:11;;;;;;;4.93;2.97;;;17.30;96.10;;;;;;4962845;29;20039;-83
2021/05/08 11:50:37;;;;;;;3.85;2.15;;;17.30;97.80;;;;;;4961770;28;20051;-82
2021/05/08 11:53:16;;;;;;;4.25;2.47;;;17.00;97.90;;;;;;4964599;29;20057;-80
2021/05/08 11:56:09;;;;;;;5.65;2.60;;;17.00;98.20;;;;;;4962875;28;20051;-81
2021/05/08 11:58:35;;;;;;;;;;;16.80;99.90;;;;;;4961579;29;20082;-78
2021/05/08 12:01:02;;;;;;;5.35;3.00;;;16.70;99.50;;;;;;4956912;29;20344;-79
2021/05/08 12:03:34;;;;;;;3.72;2.90;;;16.40;99.90;;;;;;4958839;29;20111;-80
2021/05/08 12:06:03;;;;;;;3.42;2.80;;;16.40;99.90;;;;;;4959472;28;20050;-80
2021/05/08 12:08:29;;;;;;;4.63;2.90;;;16.50;99.90;;;;;;4971086;28;20051;-81
2021/05/08 12:10:57;;;;;;;4.05;3.00;;;16.50;99.90;;;;;;4970211;28;20115;-81
2021/05/08 12:13:28;;;;;;;3.28;2.60;;;16.70;99.90;;;;;;4963412;28;20059;-79
2021/05/08 12:16:00;;;;;;;3.55;2.83;;;16.60;99.90;;;;;;4958998;28;20054;-80
2021/05/08 12:18:27;;;;;;;4.30;2.92;;;16.50;99.90;;;;;;4969310;28;20440;-81
2021/05/08 12:20:54;;;;;;;3.42;2.70;;;16.50;99.90;;;;;;4960944;28;20039;-79
2021/05/08 12:23:22;;;;;;;4.53;2.78;;;16.50;99.90;;;;;;4959381;28;20062;-79
2021/05/08 12:26:19;;;;;;;5.35;2.97;;;16.40;99.90;;;;;;4957077;28;20083;-79
2021/05/08 12:29:08;;;;;;;4.40;2.97;;;16.50;99.90;;;;;;4949310;28;20059;-79
2021/05/08 12:31:54;;;;;;;3.25;2.80;;;16.60;99.90;;;;;;4957230;28;20427;-79
2021/05/08 12:34:37;;;;;;;3.78;2.88;;;16.80;99.90;;;;;;4952265;28;20070;-80
2021/05/08 12:37:05;;;;;;;4.60;2.90;;;16.80;99.90;;;;;;4949447;29;20047;-79
2021/05/08 12:44:10;;;;;;;5.10;3.10;;;16.80;99.90;;;;;;4941215;28;20059;-78
2021/05/08 12:47:04;;;;;;;6.80;2.78;;;16.60;99.90;;;;;;4916049;29;20051;-77
2021/05/08 12:49:36;;;;;;;3.70;3.15;;;16.40;99.90;;;;;;4941190;28;20146;-77
2021/05/08 12:52:24;;;;;;;8.10;4.03;;;16.30;99.90;;;;;;4970108;28;20050;-80
2021/05/08 12:54:51;;;;;;;6.55;2.83;;;16.20;99.90;;;;;;4980527;28;20057;-79
2021/05/08 12:57:18;;;;;;;4.50;3.20;;;16.20;99.90;;;;;;4956905;28;20143;-78
2021/05/08 12:59:56;;;;;;;5.65;3.28;;;16.10;99.90;;;;;;4959714;28;20047;-80
2021/05/08 13:02:25;;;;;;;5.10;3.00;;;16.10;99.90;;;;;;4960205;28;20468;-81
2021/05/08 13:04:53;;;;;;;3.95;3.55;;;16.00;99.90;;;;;;4966508;28;20058;-78